DJG weather

Djanet Inedbirene Airport
Djanet, Illizi Province, Algeria

Public forecast

Using degrees Celsius for public forecast. Weather courtesy of forecast.io.

Current aviation weather report (METAR) for Djanet Inedbirene Airport

Retrieved 2020/06/05 22:00 UTC (16 minutes ago):

DAAJ 052200Z 04003KT 2500 SA FEW046 SCT100 34/07 Q1017

Aviation forecast (TAF) for Djanet Inedbirene Airport

Retrieved 2020/06/05 18:33 UTC (4 hours ago):

TAF DAAJ 051700Z 0518/0618 22008KT 6000 FEW046 TEMPO 0518/0604 4000 HZ FEW040TCU PROB40 0520/0602 0800 HZ